Time;durP1;ratioP1;P1;durP2;ratioP2;P2;SDS_P1;SDS_P2;PMS_P1;PMS_P2;Temp;Humidity;BMP_temperature;BMP_pressure;BME280_temperature;BME280_humidity;BME280_pressure;Samples;Min_cycle;Max_cycle;Signal;HPM_P1;HPM_P2
2022/12/20 00:01:38;;;;;;;4.93;2.22;;;;;;;;;;4182429;28;20661;-39
2022/12/20 00:03:39;;;;;;;3.25;2.40;;;;;;;;;;4188335;28;20053;-39
2022/12/20 00:05:41;;;;;;;3.10;1.90;;;;;;;;;;4169531;28;20065;-38
2022/12/20 00:07:43;;;;;;;3.45;2.38;;;;;;;;;;4162011;28;20123;-38
2022/12/20 00:09:44;;;;;;;2.70;2.28;;;;;;;;;;4193864;28;20087;-39
2022/12/20 00:11:45;;;;;;;3.60;2.35;;;;;;;;;;4196208;28;20446;-39
2022/12/20 00:13:47;;;;;;;3.22;2.42;;;;;;;;;;4195993;28;20072;-39
2022/12/20 00:15:48;;;;;;;2.60;2.20;;;;;;;;;;4178341;28;20557;-38
2022/12/20 00:17:50;;;;;;;2.85;2.13;;;;;;;;;;4196178;28;20052;-38
2022/12/20 00:19:52;;;;;;;4.28;2.58;;;;;;;;;;4195857;28;20102;-38
2022/12/20 00:21:53;;;;;;;2.80;1.95;;;;;;;;;;4182773;28;20069;-38
2022/12/20 00:23:55;;;;;;;2.40;1.90;;;;;;;;;;4178566;28;20538;-39
2022/12/20 00:26:07;;;;;;;2.90;1.98;;;;;;;;;;4186881;28;20049;-39
2022/12/20 00:28:08;;;;;;;2.95;2.38;;;;;;;;;;4189981;28;20056;-39
2022/12/20 00:30:10;;;;;;;2.35;2.13;;;;;;;;;;4195607;28;20079;-39
2022/12/20 00:32:12;;;;;;;2.30;1.90;;;;;;;;;;4185239;28;20052;-39
2022/12/20 00:34:13;;;;;;;2.97;2.10;;;;;;;;;;4174979;28;20068;-38
2022/12/20 00:36:16;;;;;;;3.53;2.40;;;;;;;;;;4192483;28;20053;-39
2022/12/20 00:38:17;;;;;;;2.38;1.83;;;;;;;;;;4158274;28;20057;-39
2022/12/20 00:40:19;;;;;;;2.88;2.10;;;;;;;;;;4192221;28;20110;-39
2022/12/20 00:42:21;;;;;;;3.03;2.13;;;;;;;;;;4174718;28;20087;-38
2022/12/20 00:44:22;;;;;;;2.97;2.40;;;;;;;;;;4182196;28;20059;-39
2022/12/20 00:46:24;;;;;;;4.28;2.55;;;;;;;;;;4196080;28;20056;-39
2022/12/20 00:48:27;;;;;;;2.50;2.00;;;;;;;;;;4195859;28;20098;-38
2022/12/20 00:50:29;;;;;;;3.42;2.35;;;;;;;;;;4183540;28;20056;-39
2022/12/20 00:52:30;;;;;;;3.30;2.40;;;;;;;;;;4179805;28;20072;-39
2022/12/20 00:54:32;;;;;;;3.00;1.92;;;;;;;;;;4185219;28;20053;-39
2022/12/20 00:56:33;;;;;;;2.67;2.42;;;;;;;;;;4178917;28;20064;-39
2022/12/20 00:58:37;;;;;;;2.88;2.05;;;;;;;;;;4179048;28;20103;-39
2022/12/20 01:00:39;;;;;;;2.70;2.00;;;;;;;;;;4175161;28;20119;-39
2022/12/20 01:02:40;;;;;;;3.80;2.33;;;;;;;;;;4172922;28;20054;-38
2022/12/20 01:04:41;;;;;;;2.75;2.13;;;;;;;;;;4192098;28;20052;-39
2022/12/20 01:06:43;;;;;;;2.58;2.00;;;;;;;;;;4182902;28;20496;-40
2022/12/20 01:08:44;;;;;;;2.90;2.05;;;;;;;;;;4181801;28;20106;-38
2022/12/20 01:10:46;;;;;;;3.28;2.20;;;;;;;;;;4194971;28;20052;-39
2022/12/20 01:12:47;;;;;;;4.35;2.55;;;;;;;;;;4188756;28;20194;-39
2022/12/20 01:14:49;;;;;;;3.78;2.25;;;;;;;;;;4177365;28;20424;-39
2022/12/20 01:16:50;;;;;;;3.10;2.17;;;;;;;;;;4192478;28;20090;-38
2022/12/20 01:18:53;;;;;;;3.25;2.30;;;;;;;;;;4182374;28;20064;-38
2022/12/20 01:21:04;;;;;;;2.70;2.05;;;;;;;;;;4195052;28;20045;-38
2022/12/20 01:23:06;;;;;;;4.13;2.58;;;;;;;;;;4192856;28;20053;-39
2022/12/20 01:25:07;;;;;;;2.63;2.15;;;;;;;;;;4194275;28;20049;-39
2022/12/20 01:27:09;;;;;;;2.00;1.80;;;;;;;;;;4197421;28;20094;-39
2022/12/20 01:29:11;;;;;;;4.00;2.33;;;;;;;;;;4181068;28;20056;-39
2022/12/20 01:31:15;;;;;;;2.63;2.20;;;;;;;;;;4180844;28;20206;-38
2022/12/20 01:33:17;;;;;;;3.65;2.17;;;;;;;;;;4195427;28;20056;-39
2022/12/20 01:35:18;;;;;;;2.65;2.10;;;;;;;;;;4198283;28;20052;-38
2022/12/20 01:37:20;;;;;;;2.20;1.90;;;;;;;;;;4192576;28;20056;-38
2022/12/20 01:39:21;;;;;;;3.83;2.53;;;;;;;;;;4172552;28;20519;-39
2022/12/20 01:41:22;;;;;;;3.47;2.30;;;;;;;;;;4198773;28;20053;-39
2022/12/20 01:43:25;;;;;;;3.22;2.50;;;;;;;;;;4198542;28;20103;-39
2022/12/20 01:45:28;;;;;;;2.85;2.13;;;;;;;;;;4198294;28;20086;-39
2022/12/20 01:47:32;;;;;;;3.00;2.33;;;;;;;;;;4198263;28;20541;-38
2022/12/20 01:49:38;;;;;;;2.60;1.92;;;;;;;;;;4180320;28;20049;-39
2022/12/20 01:51:43;;;;;;;2.80;2.30;;;;;;;;;;4173986;28;20057;-39
2022/12/20 01:53:45;;;;;;;3.42;2.50;;;;;;;;;;4198570;28;20060;-39
2022/12/20 01:55:47;;;;;;;2.55;1.90;;;;;;;;;;4180381;28;20053;-38
2022/12/20 01:57:53;;;;;;;3.50;2.40;;;;;;;;;;4176438;28;20342;-39
2022/12/20 01:59:54;;;;;;;2.80;2.08;;;;;;;;;;4177180;28;20394;-39
2022/12/20 02:02:01;;;;;;;2.35;2.05;;;;;;;;;;4187889;28;20098;-39
2022/12/20 02:04:03;;;;;;;2.17;1.90;;;;;;;;;;4160855;28;20049;-38
2022/12/20 02:06:25;;;;;;;2.90;2.08;;;;;;;;;;4194627;28;20105;-38
2022/12/20 02:08:26;;;;;;;3.55;2.50;;;;;;;;;;4187050;28;20412;-39
2022/12/20 02:10:39;;;;;;;2.83;2.17;;;;;;;;;;4172797;28;20049;-39
2022/12/20 02:12:44;;;;;;;2.38;1.83;;;;;;;;;;4179114;28;20052;-39
2022/12/20 02:15:15;;;;;;;2.55;1.92;;;;;;;;;;4179222;28;20107;-39
2022/12/20 02:17:29;;;;;;;2.95;2.05;;;;;;;;;;4191463;28;20061;-39
2022/12/20 02:19:45;;;;;;;2.00;1.80;;;;;;;;;;4170682;28;20058;-39
2022/12/20 02:22:21;;;;;;;2.65;2.10;;;;;;;;;;4175874;28;20416;-39
2022/12/20 02:24:34;;;;;;;3.08;2.55;;;;;;;;;;4176475;28;20057;-39
2022/12/20 02:26:57;;;;;;;2.55;2.08;;;;;;;;;;4162971;28;20053;-39
2022/12/20 02:29:17;;;;;;;3.05;2.38;;;;;;;;;;4192417;28;20052;-38
2022/12/20 02:31:26;;;;;;;2.53;2.00;;;;;;;;;;4190853;28;20502;-39
2022/12/20 02:33:28;;;;;;;3.47;2.67;;;;;;;;;;4154006;28;20050;-39
2022/12/20 02:35:32;;;;;;;3.22;2.28;;;;;;;;;;4180090;28;20481;-38
2022/12/20 02:37:34;;;;;;;3.28;2.03;;;;;;;;;;4175659;28;20060;-39
2022/12/20 02:39:36;;;;;;;2.63;2.13;;;;;;;;;;4167490;28;20088;-39
2022/12/20 02:41:50;;;;;;;3.83;2.58;;;;;;;;;;4154260;28;20516;-39
2022/12/20 02:46:18;;;;;;;2.50;2.15;;;;;;;;;;4186301;28;20487;-38
2022/12/20 02:48:20;;;;;;;2.92;2.13;;;;;;;;;;4178917;28;20053;-39
2022/12/20 02:50:35;;;;;;;2.60;1.90;;;;;;;;;;4174971;28;20102;-39
2022/12/20 02:52:37;;;;;;;2.35;2.08;;;;;;;;;;4172471;28;20148;-38
2022/12/20 02:54:38;;;;;;;3.28;2.33;;;;;;;;;;4178377;28;20202;-39
2022/12/20 02:57:10;;;;;;;3.70;2.30;;;;;;;;;;4172943;28;20049;-38
2022/12/20 02:59:18;;;;;;;2.80;2.05;;;;;;;;;;4168778;28;20095;-39
2022/12/20 03:01:32;;;;;;;2.90;2.28;;;;;;;;;;4153844;28;20457;-38
2022/12/20 03:03:34;;;;;;;3.47;2.40;;;;;;;;;;4161651;28;20053;-39
2022/12/20 03:05:43;;;;;;;3.55;2.35;;;;;;;;;;4161328;28;20050;-38
2022/12/20 03:07:44;;;;;;;2.63;1.77;;;;;;;;;;4178540;28;20060;-38
2022/12/20 03:09:46;;;;;;;3.05;2.10;;;;;;;;;;4126931;28;1187723;-39
2022/12/20 03:11:49;;;;;;;2.65;1.98;;;;;;;;;;4160047;28;20065;-39
2022/12/20 03:13:51;;;;;;;2.53;2.25;;;;;;;;;;4166313;28;20052;-38
2022/12/20 03:15:52;;;;;;;3.40;2.25;;;;;;;;;;4179380;28;20543;-39
2022/12/20 03:17:54;;;;;;;2.83;1.98;;;;;;;;;;4179091;28;20053;-39
2022/12/20 03:19:56;;;;;;;3.03;2.58;;;;;;;;;;4179349;28;20107;-39
2022/12/20 03:21:58;;;;;;;3.28;2.58;;;;;;;;;;4196367;28;20488;-40
2022/12/20 03:23:59;;;;;;;3.30;2.30;;;;;;;;;;4189106;28;20114;-39
2022/12/20 03:26:00;;;;;;;3.30;2.22;;;;;;;;;;4177592;28;20098;-38
2022/12/20 03:28:21;;;;;;;3.13;2.10;;;;;;;;;;4163271;28;20060;-39
2022/12/20 03:30:22;;;;;;;2.83;2.10;;;;;;;;;;4179063;28;20045;-39
2022/12/20 03:32:25;;;;;;;2.53;2.00;;;;;;;;;;4178974;28;20522;-39
2022/12/20 03:34:30;;;;;;;2.65;1.77;;;;;;;;;;4179115;28;20087;-39
2022/12/20 03:36:31;;;;;;;2.72;1.95;;;;;;;;;;4196033;28;20385;-39
2022/12/20 03:38:36;;;;;;;3.20;2.30;;;;;;;;;;4170920;28;20068;-39
2022/12/20 03:40:39;;;;;;;2.63;2.30;;;;;;;;;;4177463;28;20053;-39
2022/12/20 03:42:40;;;;;;;3.00;2.08;;;;;;;;;;4186061;28;20064;-38
2022/12/20 03:44:42;;;;;;;2.75;1.92;;;;;;;;;;4162192;28;20061;-38
2022/12/20 03:46:44;;;;;;;2.53;2.30;;;;;;;;;;4172397;28;20094;-38
2022/12/20 03:48:46;;;;;;;2.45;1.92;;;;;;;;;;4175376;28;20061;-39
2022/12/20 03:50:48;;;;;;;2.63;1.90;;;;;;;;;;4177437;28;20068;-39
2022/12/20 03:52:49;;;;;;;2.22;1.92;;;;;;;;;;4169400;28;20053;-39
2022/12/20 03:54:51;;;;;;;4.45;2.53;;;;;;;;;;4177852;28;20458;-39
2022/12/20 03:56:55;;;;;;;2.65;2.00;;;;;;;;;;4178725;28;20385;-39
2022/12/20 03:58:57;;;;;;;2.08;1.70;;;;;;;;;;4168919;28;20127;-39
2022/12/20 04:00:58;;;;;;;2.90;2.20;;;;;;;;;;4174829;28;20164;-38
2022/12/20 04:03:28;;;;;;;2.63;1.98;;;;;;;;;;4177228;28;20062;-39
2022/12/20 04:05:30;;;;;;;3.22;2.35;;;;;;;;;;4170392;28;20049;-38
2022/12/20 04:07:31;;;;;;;3.38;2.22;;;;;;;;;;4174624;28;20060;-40
2022/12/20 04:09:33;;;;;;;2.50;1.90;;;;;;;;;;4177261;28;20147;-39
2022/12/20 04:11:42;;;;;;;2.38;1.80;;;;;;;;;;4172046;28;20050;-39
2022/12/20 04:13:50;;;;;;;2.90;2.00;;;;;;;;;;4161903;28;20068;-39
2022/12/20 04:15:51;;;;;;;2.88;2.15;;;;;;;;;;4158802;28;20212;-39
2022/12/20 04:17:53;;;;;;;2.70;2.00;;;;;;;;;;4171369;28;20064;-38
2022/12/20 04:19:55;;;;;;;2.78;2.22;;;;;;;;;;4178134;28;20144;-38
2022/12/20 04:21:57;;;;;;;3.28;2.10;;;;;;;;;;4164989;28;20053;-39
2022/12/20 04:24:01;;;;;;;3.45;2.50;;;;;;;;;;4159999;28;20088;-39
2022/12/20 04:26:14;;;;;;;3.17;1.88;;;;;;;;;;4166167;28;20053;-39
2022/12/20 04:28:16;;;;;;;3.25;2.50;;;;;;;;;;4178184;28;20060;-38
2022/12/20 04:30:17;;;;;;;2.70;2.10;;;;;;;;;;4172035;28;20053;-39
2022/12/20 04:32:19;;;;;;;2.42;2.22;;;;;;;;;;4164201;28;20104;-39
2022/12/20 04:34:21;;;;;;;2.45;1.90;;;;;;;;;;4165298;28;20049;-39
2022/12/20 04:36:22;;;;;;;2.58;2.05;;;;;;;;;;4178274;28;20057;-39
2022/12/20 04:38:26;;;;;;;2.28;2.05;;;;;;;;;;4164590;28;20053;-39
2022/12/20 04:40:27;;;;;;;2.47;2.00;;;;;;;;;;4177792;28;20085;-39
2022/12/20 04:42:32;;;;;;;3.00;2.28;;;;;;;;;;4164806;28;20504;-38
2022/12/20 04:44:33;;;;;;;2.83;2.28;;;;;;;;;;4177947;28;20610;-39
2022/12/20 04:46:34;;;;;;;2.78;2.47;;;;;;;;;;4177798;28;20060;-39
2022/12/20 04:48:39;;;;;;;2.28;1.95;;;;;;;;;;4161480;28;20485;-39
2022/12/20 04:50:41;;;;;;;3.17;2.30;;;;;;;;;;4176859;28;20059;-39
2022/12/20 04:55:04;;;;;;;2.53;1.88;;;;;;;;;;4172650;28;20077;-39
2022/12/20 04:57:08;;;;;;;2.47;1.90;;;;;;;;;;4169280;28;20394;-39
2022/12/20 04:59:11;;;;;;;2.58;2.17;;;;;;;;;;4177951;28;20056;-39
2022/12/20 05:01:14;;;;;;;2.75;1.95;;;;;;;;;;4177848;28;20061;-38
2022/12/20 05:03:23;;;;;;;2.88;2.15;;;;;;;;;;4157711;28;20513;-38
2022/12/20 05:05:25;;;;;;;2.85;2.00;;;;;;;;;;4154529;28;20076;-39
2022/12/20 05:07:28;;;;;;;2.67;2.05;;;;;;;;;;4149739;28;20062;-38
2022/12/20 05:09:31;;;;;;;2.60;2.00;;;;;;;;;;4167107;28;20060;-39
2022/12/20 05:11:32;;;;;;;3.72;2.40;;;;;;;;;;4172717;28;20441;-39
2022/12/20 05:13:33;;;;;;;2.78;2.00;;;;;;;;;;4163081;28;20131;-38
2022/12/20 05:15:36;;;;;;;2.72;2.10;;;;;;;;;;4177566;28;20478;-39
2022/12/20 05:17:37;;;;;;;3.22;2.22;;;;;;;;;;4167482;28;20053;-38
2022/12/20 05:19:39;;;;;;;2.67;1.90;;;;;;;;;;4189006;28;20052;-39
2022/12/20 05:26:36;;;;;;;2.45;1.77;;;;;;;;;;4162210;28;19921;-39
2022/12/20 05:28:39;;;;;;;2.50;2.17;;;;;;;;;;4177482;28;20106;-39
2022/12/20 05:30:40;;;;;;;3.17;2.38;;;;;;;;;;4170890;28;20049;-39
2022/12/20 05:32:42;;;;;;;2.88;2.00;;;;;;;;;;4174112;28;20386;-38
2022/12/20 05:34:43;;;;;;;2.88;2.15;;;;;;;;;;4163889;28;20103;-39
2022/12/20 05:36:45;;;;;;;2.47;1.80;;;;;;;;;;4177771;28;20048;-39
2022/12/20 05:38:47;;;;;;;2.88;2.20;;;;;;;;;;4188705;28;20126;-39
2022/12/20 05:40:51;;;;;;;3.30;2.53;;;;;;;;;;4161651;28;20474;-39
2022/12/20 05:42:53;;;;;;;2.45;2.10;;;;;;;;;;4174465;28;20504;-38
2022/12/20 05:44:59;;;;;;;2.20;2.00;;;;;;;;;;4164312;28;20142;-39
2022/12/20 05:47:01;;;;;;;3.08;2.22;;;;;;;;;;4177826;28;20079;-39
2022/12/20 05:49:05;;;;;;;3.05;2.20;;;;;;;;;;4171218;28;20091;-39
2022/12/20 05:51:06;;;;;;;2.67;2.30;;;;;;;;;;4177518;28;20053;-39
2022/12/20 05:53:17;;;;;;;2.95;2.10;;;;;;;;;;4171414;28;20393;-39
2022/12/20 05:55:23;;;;;;;2.72;2.00;;;;;;;;;;4186545;28;20053;-39
2022/12/20 05:57:24;;;;;;;3.30;1.98;;;;;;;;;;4172395;28;20079;-38
2022/12/20 05:59:26;;;;;;;3.25;2.35;;;;;;;;;;4177378;28;20053;-38
2022/12/20 06:01:27;;;;;;;2.17;1.90;;;;;;;;;;4174447;28;20052;-38
2022/12/20 06:03:33;;;;;;;3.08;1.88;;;;;;;;;;4183037;28;20057;-38
2022/12/20 06:05:36;;;;;;;2.92;2.22;;;;;;;;;;4161994;28;20180;-38
2022/12/20 06:07:39;;;;;;;2.30;1.90;;;;;;;;;;4176175;28;20465;-39
2022/12/20 06:09:40;;;;;;;3.53;2.22;;;;;;;;;;4161164;28;20056;-38
2022/12/20 06:11:47;;;;;;;2.88;2.15;;;;;;;;;;4163549;28;20099;-39
2022/12/20 06:13:49;;;;;;;2.40;1.80;;;;;;;;;;4172577;28;20052;-39
2022/12/20 06:15:50;;;;;;;2.67;2.00;;;;;;;;;;4154067;28;20579;-38
2022/12/20 06:17:53;;;;;;;3.50;2.20;;;;;;;;;;4165752;28;20305;-38
2022/12/20 06:19:55;;;;;;;2.85;1.90;;;;;;;;;;4177852;28;20518;-39
2022/12/20 06:21:57;;;;;;;2.65;1.98;;;;;;;;;;4171323;28;20091;-38
2022/12/20 06:24:05;;;;;;;2.33;1.67;;;;;;;;;;4163019;28;20053;-38
2022/12/20 06:26:08;;;;;;;2.47;2.10;;;;;;;;;;4165953;28;20215;-38
2022/12/20 06:28:12;;;;;;;2.80;2.03;;;;;;;;;;4177269;28;20057;-38
2022/12/20 06:30:15;;;;;;;2.55;1.95;;;;;;;;;;4189259;28;20061;-38
2022/12/20 06:32:55;;;;;;;2.90;1.70;;;;;;;;;;4179326;28;20565;-39
2022/12/20 06:34:56;;;;;;;2.58;1.88;;;;;;;;;;4185065;28;20110;-39
2022/12/20 06:36:57;;;;;;;2.63;1.58;;;;;;;;;;4191237;28;20495;-38
2022/12/20 06:39:02;;;;;;;3.15;1.70;;;;;;;;;;4160672;28;20054;-39
2022/12/20 06:41:04;;;;;;;3.75;1.77;;;;;;;;;;4186328;28;20557;-39
2022/12/20 06:43:06;;;;;;;2.75;2.08;;;;;;;;;;4179127;28;20064;-39
2022/12/20 06:45:07;;;;;;;2.95;1.80;;;;;;;;;;4189258;28;20061;-39
2022/12/20 06:47:09;;;;;;;1.75;1.38;;;;;;;;;;4175321;28;20053;-39
2022/12/20 06:49:10;;;;;;;4.00;1.88;;;;;;;;;;4182023;28;20523;-38
2022/12/20 06:51:12;;;;;;;2.22;1.63;;;;;;;;;;4160328;28;20053;-39
2022/12/20 06:53:13;;;;;;;2.17;1.45;;;;;;;;;;4193697;28;20518;-39
2022/12/20 06:55:15;;;;;;;2.13;1.75;;;;;;;;;;4172771;28;20049;-39
2022/12/20 06:57:16;;;;;;;2.47;1.48;;;;;;;;;;4171967;28;20477;-39
2022/12/20 06:59:21;;;;;;;2.13;1.50;;;;;;;;;;4171940;28;20060;-38
2022/12/20 07:01:22;;;;;;;2.30;1.70;;;;;;;;;;4190870;28;20056;-39
2022/12/20 07:03:23;;;;;;;1.65;1.42;;;;;;;;;;4192081;28;20060;-38
2022/12/20 07:05:25;;;;;;;2.17;1.50;;;;;;;;;;4189334;28;20049;-38
2022/12/20 07:07:26;;;;;;;2.97;1.42;;;;;;;;;;4190527;28;20056;-38
2022/12/20 07:09:28;;;;;;;3.38;1.67;;;;;;;;;;4183166;28;20056;-41
2022/12/20 07:11:29;;;;;;;2.08;1.40;;;;;;;;;;4187240;28;20048;-39
2022/12/20 07:13:30;;;;;;;1.30;1.20;;;;;;;;;;4186721;28;20056;-39
2022/12/20 07:15:31;;;;;;;2.35;1.48;;;;;;;;;;4183762;28;20106;-39
2022/12/20 07:17:32;;;;;;;2.08;1.30;;;;;;;;;;4185597;28;20159;-39
2022/12/20 07:19:35;;;;;;;2.33;1.45;;;;;;;;;;4191601;28;20109;-38
2022/12/20 07:21:36;;;;;;;2.50;1.52;;;;;;;;;;4189096;28;20060;-38
2022/12/20 07:23:38;;;;;;;1.77;1.33;;;;;;;;;;4173969;28;20049;-38
2022/12/20 07:25:39;;;;;;;1.67;1.10;;;;;;;;;;4186056;28;20110;-39
2022/12/20 07:27:40;;;;;;;1.23;1.10;;;;;;;;;;4186919;28;20056;-39
2022/12/20 07:29:41;;;;;;;2.50;1.38;;;;;;;;;;4186858;28;20052;-39
2022/12/20 07:31:43;;;;;;;1.83;1.25;;;;;;;;;;4163994;28;20103;-39
2022/12/20 07:33:44;;;;;;;1.20;1.00;;;;;;;;;;4189671;28;20458;-39
2022/12/20 07:35:46;;;;;;;1.50;1.30;;;;;;;;;;4183736;28;20384;-38
2022/12/20 07:37:47;;;;;;;2.10;1.27;;;;;;;;;;4168039;28;20103;-40
2022/12/20 07:39:48;;;;;;;2.20;1.40;;;;;;;;;;4179756;28;20409;-39
2022/12/20 07:41:53;;;;;;;1.55;1.23;;;;;;;;;;4184923;28;20098;-38
2022/12/20 07:43:58;;;;;;;2.75;1.20;;;;;;;;;;4164600;28;20056;-38
2022/12/20 07:46:00;;;;;;;2.35;1.38;;;;;;;;;;4180460;28;20071;-39
2022/12/20 07:48:01;;;;;;;3.20;1.75;;;;;;;;;;4178744;28;20117;-38
2022/12/20 07:50:02;;;;;;;2.55;1.23;;;;;;;;;;4186473;28;20450;-38
2022/12/20 07:52:05;;;;;;;3.45;1.45;;;;;;;;;;4189065;28;20096;-39
2022/12/20 07:54:11;;;;;;;1.73;1.10;;;;;;;;;;4151891;28;20934;-38
2022/12/20 07:56:14;;;;;;;1.80;1.42;;;;;;;;;;4161912;28;20118;-38
2022/12/20 07:58:16;;;;;;;2.40;1.10;;;;;;;;;;4163702;28;20064;-38
2022/12/20 08:00:18;;;;;;;1.88;1.17;;;;;;;;;;4158754;28;20071;-38
2022/12/20 08:02:27;;;;;;;1.70;1.08;;;;;;;;;;4171111;28;20772;-38
2022/12/20 08:04:29;;;;;;;3.33;1.45;;;;;;;;;;4162127;28;20048;-37
2022/12/20 08:06:31;;;;;;;1.70;1.20;;;;;;;;;;4180677;28;20101;-38
2022/12/20 08:08:36;;;;;;;2.15;1.48;;;;;;;;;;4167424;28;20114;-38
2022/12/20 08:10:38;;;;;;;3.00;1.17;;;;;;;;;;4182987;28;20053;-38
2022/12/20 08:12:41;;;;;;;2.10;1.15;;;;;;;;;;4183836;28;20102;-38
2022/12/20 08:14:43;;;;;;;2.28;1.48;;;;;;;;;;4168395;28;20065;-37
2022/12/20 08:16:45;;;;;;;3.78;1.45;;;;;;;;;;4177669;28;20061;-38
2022/12/20 08:18:46;;;;;;;3.22;1.38;;;;;;;;;;4179485;28;20082;-38
2022/12/20 08:20:47;;;;;;;1.83;1.05;;;;;;;;;;4176424;28;20052;-38
2022/12/20 08:22:49;;;;;;;2.47;1.38;;;;;;;;;;4185797;28;20416;-38
2022/12/20 08:24:50;;;;;;;3.25;1.35;;;;;;;;;;4182630;28;20064;-38
2022/12/20 08:26:52;;;;;;;5.20;1.52;;;;;;;;;;4184920;28;20726;-38
2022/12/20 08:28:54;;;;;;;2.70;1.70;;;;;;;;;;4165996;28;20057;-38
2022/12/20 08:31:03;;;;;;;2.88;1.50;;;;;;;;;;4183041;28;20542;-38
2022/12/20 08:33:04;;;;;;;3.08;1.05;;;;;;;;;;4173495;28;20048;-38
2022/12/20 08:35:06;;;;;;;2.90;1.27;;;;;;;;;;4180324;28;20075;-38
2022/12/20 08:37:08;;;;;;;2.90;1.33;;;;;;;;;;4163607;28;20053;-38
2022/12/20 08:39:10;;;;;;;2.15;1.27;;;;;;;;;;4177491;28;20102;-38
2022/12/20 08:41:13;;;;;;;2.60;1.20;;;;;;;;;;4178094;28;20155;-38
2022/12/20 08:43:14;;;;;;;2.40;1.38;;;;;;;;;;4177053;28;20099;-37
2022/12/20 08:45:18;;;;;;;2.97;1.58;;;;;;;;;;4180993;28;20097;-37
2022/12/20 08:47:19;;;;;;;2.75;1.58;;;;;;;;;;4187368;28;20445;-38
2022/12/20 08:49:21;;;;;;;1.65;1.13;;;;;;;;;;4178780;28;20475;-38
2022/12/20 08:51:22;;;;;;;5.10;1.88;;;;;;;;;;4179926;28;20539;-38
2022/12/20 08:53:24;;;;;;;3.35;1.05;;;;;;;;;;4183734;28;20068;-38
2022/12/20 08:55:25;;;;;;;2.72;1.42;;;;;;;;;;4175326;28;20064;-38
2022/12/20 08:57:26;;;;;;;3.88;1.63;;;;;;;;;;4175060;28;20057;-38
2022/12/20 08:59:27;;;;;;;3.33;1.65;;;;;;;;;;4177353;28;21030;-38
2022/12/20 09:01:32;;;;;;;3.20;1.60;;;;;;;;;;4170956;28;20052;-38
2022/12/20 09:03:34;;;;;;;3.50;1.35;;;;;;;;;;4173438;28;20114;-38
2022/12/20 09:05:41;;;;;;;3.08;1.35;;;;;;;;;;4175834;28;20506;-38
2022/12/20 09:07:43;;;;;;;4.07;1.73;;;;;;;;;;4178902;28;20419;-38
2022/12/20 09:09:45;;;;;;;4.07;1.55;;;;;;;;;;4177460;28;20056;-38
2022/12/20 09:11:46;;;;;;;3.65;1.30;;;;;;;;;;4170310;28;20534;-38
2022/12/20 09:13:50;;;;;;;3.35;1.38;;;;;;;;;;4177425;28;20053;-38
2022/12/20 09:15:51;;;;;;;3.83;1.40;;;;;;;;;;4177505;28;20106;-38
2022/12/20 09:17:54;;;;;;;3.67;1.38;;;;;;;;;;4176834;28;20087;-38
2022/12/20 09:19:55;;;;;;;3.90;1.40;;;;;;;;;;4181591;28;20099;-38
2022/12/20 09:21:57;;;;;;;2.15;1.25;;;;;;;;;;4185209;28;20463;-38
2022/12/20 09:23:59;;;;;;;1.92;1.48;;;;;;;;;;4180887;28;20098;-38
2022/12/20 09:26:05;;;;;;;2.47;1.17;;;;;;;;;;4179239;28;20052;-38
2022/12/20 09:28:07;;;;;;;3.45;1.13;;;;;;;;;;4180352;28;20388;-38
2022/12/20 09:30:08;;;;;;;4.55;1.65;;;;;;;;;;4178374;28;20940;-38
2022/12/20 09:32:11;;;;;;;2.72;1.40;;;;;;;;;;4156549;28;20049;-38
2022/12/20 09:34:13;;;;;;;3.63;1.20;;;;;;;;;;4181972;28;20110;-38
2022/12/20 09:36:19;;;;;;;4.45;1.40;;;;;;;;;;4180050;28;20461;-38
2022/12/20 09:38:22;;;;;;;5.15;1.20;;;;;;;;;;4147122;28;20116;-39
2022/12/20 09:40:26;;;;;;;2.17;1.10;;;;;;;;;;4181067;28;20052;-38
2022/12/20 09:42:28;;;;;;;2.95;1.17;;;;;;;;;;4149427;28;20052;-38
2022/12/20 09:44:32;;;;;;;2.92;0.90;;;;;;;;;;4163754;28;20091;-38
2022/12/20 09:46:33;;;;;;;1.80;1.13;;;;;;;;;;4182803;28;20500;-39
2022/12/20 09:48:37;;;;;;;1.98;1.08;;;;;;;;;;4164339;28;20623;-39
2022/12/20 09:51:01;;;;;;;2.10;1.10;;;;;;;;;;4184540;28;20541;-39
2022/12/20 09:53:18;;;;;;;1.75;1.33;;;;;;;;;;4180955;28;20106;-38
2022/12/20 09:55:27;;;;;;;2.22;1.00;;;;;;;;;;4185217;28;20493;-38
2022/12/20 09:57:58;;;;;;;4.18;1.10;;;;;;;;;;4177835;28;20068;-38
2022/12/20 09:59:59;;;;;;;3.50;1.00;;;;;;;;;;4153055;28;20123;-38
2022/12/20 10:02:00;;;;;;;5.80;1.20;;;;;;;;;;4179029;28;20451;-38
2022/12/20 10:04:23;;;;;;;5.40;1.52;;;;;;;;;;4165923;28;20061;-39
2022/12/20 10:06:46;;;;;;;3.22;1.33;;;;;;;;;;4178023;28;20056;-38
2022/12/20 10:08:55;;;;;;;2.75;1.10;;;;;;;;;;4183233;28;20064;-38
2022/12/20 10:11:05;;;;;;;0.82;0.52;;;;;;;;;;4178180;28;20493;-38
2022/12/20 10:13:34;;;;;;;1.88;0.98;;;;;;;;;;4167339;28;20065;-38
2022/12/20 10:15:59;;;;;;;1.42;0.82;;;;;;;;;;4163184;28;20111;-38
2022/12/20 10:18:03;;;;;;;3.70;1.23;;;;;;;;;;4175239;28;20094;-38
2022/12/20 10:20:21;;;;;;;5.70;1.20;;;;;;;;;;4185802;28;20060;-38
2022/12/20 10:22:26;;;;;;;1.33;0.82;;;;;;;;;;4186103;28;20524;-38
2022/12/20 10:24:32;;;;;;;2.38;1.05;;;;;;;;;;4164338;28;20057;-37
2022/12/20 10:26:34;;;;;;;1.58;1.02;;;;;;;;;;4163820;28;20558;-39
2022/12/20 10:28:35;;;;;;;4.70;0.82;;;;;;;;;;4174802;28;20058;-40
2022/12/20 10:30:37;;;;;;;2.35;1.00;;;;;;;;;;4172521;28;20122;-40
2022/12/20 10:32:39;;;;;;;1.23;0.80;;;;;;;;;;4180317;28;20060;-38
2022/12/20 10:34:55;;;;;;;1.85;1.00;;;;;;;;;;4163466;28;20061;-39
2022/12/20 10:37:13;;;;;;;2.35;0.85;;;;;;;;;;4165259;28;20516;-38
2022/12/20 10:39:14;;;;;;;1.15;0.68;;;;;;;;;;4184243;28;20060;-39
2022/12/20 10:41:19;;;;;;;0.60;0.60;;;;;;;;;;4182307;28;20093;-39
2022/12/20 10:43:21;;;;;;;1.45;0.68;;;;;;;;;;4180358;28;20198;-39
2022/12/20 10:45:23;;;;;;;1.15;0.63;;;;;;;;;;4180707;28;20060;-39
2022/12/20 10:47:40;;;;;;;1.73;0.70;;;;;;;;;;4173495;28;20075;-39
2022/12/20 10:49:42;;;;;;;0.75;0.55;;;;;;;;;;4160751;28;20174;-39
2022/12/20 10:51:51;;;;;;;1.80;0.88;;;;;;;;;;4183834;28;20493;-40
2022/12/20 10:53:56;;;;;;;0.73;0.60;;;;;;;;;;4188829;28;20102;-39
2022/12/20 10:56:19;;;;;;;1.77;0.50;;;;;;;;;;4187303;28;21018;-38
2022/12/20 10:58:26;;;;;;;1.42;0.60;;;;;;;;;;4184416;28;20393;-38
2022/12/20 11:00:29;;;;;;;2.65;0.77;;;;;;;;;;4190959;28;20102;-38
2022/12/20 11:02:32;;;;;;;1.65;0.57;;;;;;;;;;4190368;28;20052;-39
2022/12/20 11:04:35;;;;;;;1.15;0.70;;;;;;;;;;4169793;28;20126;-39
2022/12/20 11:06:36;;;;;;;0.70;0.40;;;;;;;;;;4181973;28;20059;-38
2022/12/20 11:08:37;;;;;;;2.45;0.60;;;;;;;;;;4184890;28;20048;-39
2022/12/20 11:10:39;;;;;;;0.93;0.50;;;;;;;;;;4189991;28;20056;-38
2022/12/20 11:12:52;;;;;;;1.00;0.60;;;;;;;;;;4182880;28;20076;-39
2022/12/20 11:15:18;;;;;;;1.15;0.50;;;;;;;;;;4189978;28;20064;-38
2022/12/20 11:17:40;;;;;;;0.73;0.50;;;;;;;;;;4184253;28;20056;-39
2022/12/20 11:19:54;;;;;;;2.10;0.50;;;;;;;;;;4159710;28;20053;-39
2022/12/20 11:22:04;;;;;;;0.93;0.60;;;;;;;;;;4157948;28;20370;-38
2022/12/20 11:24:15;;;;;;;1.02;0.50;;;;;;;;;;4166268;28;20672;-38
2022/12/20 11:26:40;;;;;;;1.25;0.77;;;;;;;;;;4176864;28;20057;-39
2022/12/20 11:29:09;;;;;;;0.90;0.65;;;;;;;;;;4163066;28;20156;-38
2022/12/20 11:31:48;;;;;;;1.52;1.00;;;;;;;;;;4181434;28;20110;-39
2022/12/20 11:34:02;;;;;;;0.60;0.40;;;;;;;;;;4170575;28;20114;-39
2022/12/20 11:36:10;;;;;;;0.65;0.65;;;;;;;;;;4162780;28;20064;-39
2022/12/20 11:38:19;;;;;;;1.13;0.88;;;;;;;;;;4168422;28;20056;-39
2022/12/20 11:40:31;;;;;;;0.88;0.50;;;;;;;;;;4181873;28;20095;-39
2022/12/20 11:42:55;;;;;;;1.77;0.63;;;;;;;;;;4180454;28;20502;-38
2022/12/20 11:45:14;;;;;;;1.63;0.60;;;;;;;;;;4186159;28;20111;-38
2022/12/20 11:47:18;;;;;;;;;;;;;;;;;;4172774;28;20105;-39
2022/12/20 11:49:44;;;;;;;0.70;0.57;;;;;;;;;;4168153;28;20370;-38
2022/12/20 11:51:47;;;;;;;1.08;0.60;;;;;;;;;;4167289;28;20095;-38
2022/12/20 11:54:08;;;;;;;1.40;1.02;;;;;;;;;;4181733;28;20452;-39
2022/12/20 11:56:32;;;;;;;1.17;0.60;;;;;;;;;;4179428;28;20102;-39
2022/12/20 11:58:46;;;;;;;0.47;0.45;;;;;;;;;;4177831;28;20056;-38
2022/12/20 12:01:08;;;;;;;0.90;0.40;;;;;;;;;;4178272;28;20098;-39
2022/12/20 12:03:13;;;;;;;1.38;0.90;;;;;;;;;;4169152;28;20535;-39
2022/12/20 12:05:26;;;;;;;1.83;0.68;;;;;;;;;;4184892;28;20424;-39
2022/12/20 12:07:31;;;;;;;0.82;0.60;;;;;;;;;;4166676;28;20528;-39
2022/12/20 12:09:57;;;;;;;2.55;0.73;;;;;;;;;;4188226;28;20117;-39
2022/12/20 12:12:11;;;;;;;1.50;0.50;;;;;;;;;;4169173;28;20049;-39
2022/12/20 12:14:30;;;;;;;3.67;0.60;;;;;;;;;;4149346;28;20057;-36
2022/12/20 12:16:36;;;;;;;;;;;;;;;;;;4165945;28;20362;-38
2022/12/20 12:18:38;;;;;;;1.27;0.50;;;;;;;;;;4182827;28;19928;-39
2022/12/20 12:21:12;;;;;;;1.00;0.60;;;;;;;;;;4184860;28;20459;-40
2022/12/20 12:23:18;;;;;;;1.42;0.75;;;;;;;;;;4167274;28;20555;-39
2022/12/20 12:25:20;;;;;;;0.77;0.50;;;;;;;;;;4182514;28;20155;-40
2022/12/20 12:27:24;;;;;;;1.95;0.80;;;;;;;;;;4162480;28;20072;-39
2022/12/20 12:29:28;;;;;;;0.88;0.65;;;;;;;;;;4178470;28;20049;-39
2022/12/20 12:31:38;;;;;;;1.35;0.60;;;;;;;;;;4159144;28;20053;-39
2022/12/20 12:33:49;;;;;;;1.00;0.65;;;;;;;;;;4178650;28;20508;-39
2022/12/20 12:36:30;;;;;;;1.48;0.52;;;;;;;;;;4168925;28;20052;-39
2022/12/20 12:38:47;;;;;;;0.90;0.60;;;;;;;;;;4135165;28;20540;-39
2022/12/20 12:41:19;;;;;;;0.82;0.57;;;;;;;;;;4173963;28;20056;-39
2022/12/20 12:43:40;;;;;;;4.15;0.52;;;;;;;;;;4181909;28;20060;-38